Time;durP1;ratioP1;P1;durP2;ratioP2;P2;SDS_P1;SDS_P2;PMS_P1;PMS_P2;Temp;Humidity;BMP_temperature;BMP_pressure;BME280_temperature;BME280_humidity;BME280_pressure;Samples;Min_cycle;Max_cycle;Signal;HPM_P1;HPM_P2
2023/09/21 00:01:19;;;;;;;7.93;3.60;;;15.30;99.90;;;;;;4964505;28;20223;-84
2023/09/21 00:03:48;;;;;;;9.20;3.35;;;15.30;99.90;;;;;;4963844;28;20194;-83
2023/09/21 00:06:19;;;;;;;11.20;3.00;;;15.30;99.90;;;;;;4966741;28;20266;-84
2023/09/21 00:08:49;;;;;;;7.43;3.28;;;15.30;99.90;;;;;;4968625;28;20661;-84
2023/09/21 00:11:18;;;;;;;6.85;3.33;;;15.30;99.90;;;;;;4972196;28;20238;-84
2023/09/21 00:13:46;;;;;;;6.90;2.88;;;15.30;99.90;;;;;;4972827;28;20215;-83
2023/09/21 00:16:18;;;;;;;9.75;3.72;;;15.30;99.90;;;;;;4967232;28;20740;-83
2023/09/21 00:18:46;;;;;;;6.63;2.97;;;15.30;99.90;;;;;;4966873;28;20194;-84
2023/09/21 00:21:15;;;;;;;7.10;3.83;;;15.30;99.90;;;;;;4975707;28;20184;-84
2023/09/21 00:23:44;;;;;;;9.13;3.50;;;15.30;99.90;;;;;;4983490;28;20227;-85
2023/09/21 00:26:12;;;;;;;7.43;3.22;;;15.20;99.90;;;;;;4982318;28;20195;-83
2023/09/21 00:28:46;;;;;;;6.38;3.53;;;15.20;99.90;;;;;;4978764;28;20203;-83
2023/09/21 00:31:14;;;;;;;6.03;3.30;;;15.20;99.90;;;;;;4968731;28;20195;-84
2023/09/21 00:33:42;;;;;;;7.60;3.47;;;15.20;99.90;;;;;;4964301;28;20211;-83
2023/09/21 00:36:11;;;;;;;8.55;2.65;;;15.20;99.90;;;;;;4958066;28;20191;-84
2023/09/21 00:38:39;;;;;;;6.68;3.05;;;15.20;99.90;;;;;;4964590;28;20183;-84
2023/09/21 00:41:07;;;;;;;6.82;3.40;;;15.20;99.90;;;;;;4963788;28;20198;-84
2023/09/21 00:43:35;;;;;;;7.82;3.92;;;15.10;99.90;;;;;;4955261;28;20735;-83
2023/09/21 00:46:03;;;;;;;5.97;3.58;;;15.00;99.90;;;;;;4975036;28;20730;-83
2023/09/21 00:48:38;;;;;;;4.57;3.08;;;15.00;99.90;;;;;;4957318;28;20224;-83
2023/09/21 00:51:12;;;;;;;7.63;2.97;;;15.00;99.90;;;;;;4983520;28;20813;-85
2023/09/21 00:53:44;;;;;;;8.60;3.63;;;15.10;99.90;;;;;;4966864;28;20674;-83
2023/09/21 00:56:17;;;;;;;5.25;3.17;;;15.10;99.90;;;;;;4980250;28;20216;-83
2023/09/21 00:58:50;;;;;;;9.40;2.97;;;15.00;99.90;;;;;;4958119;28;20597;-84
2023/09/21 01:01:22;;;;;;;6.05;3.25;;;15.00;99.90;;;;;;4973555;28;20193;-83
2023/09/21 01:03:54;;;;;;;6.50;3.38;;;14.90;99.90;;;;;;4982049;28;20247;-83
2023/09/21 01:06:23;;;;;;;5.50;2.90;;;14.90;99.90;;;;;;4980576;28;20191;-84
2023/09/21 01:08:51;;;;;;;5.40;2.78;;;14.90;99.90;;;;;;4980826;28;20637;-84
2023/09/21 01:11:20;;;;;;;6.82;3.10;;;14.90;99.90;;;;;;4985583;28;20945;-84
2023/09/21 01:13:48;;;;;;;4.65;2.97;;;14.90;99.90;;;;;;4974548;28;20204;-82
2023/09/21 01:16:17;;;;;;;6.93;3.03;;;14.80;99.90;;;;;;4985424;28;20183;-85
2023/09/21 01:18:46;;;;;;;6.38;3.58;;;14.80;99.90;;;;;;4944779;28;20192;-83
2023/09/21 01:21:21;;;;;;;6.38;3.03;;;14.80;99.90;;;;;;4980658;28;20188;-84
2023/09/21 01:23:49;;;;;;;8.43;3.78;;;14.80;99.90;;;;;;4974518;28;20203;-84
2023/09/21 01:26:19;;;;;;;7.03;3.75;;;14.80;99.90;;;;;;4967436;28;20195;-84
2023/09/21 01:28:48;;;;;;;5.38;3.55;;;14.80;99.90;;;;;;4961079;28;20243;-82
2023/09/21 01:31:18;;;;;;;7.25;4.07;;;14.70;99.90;;;;;;4950519;28;20270;-83
2023/09/21 01:33:47;;;;;;;6.93;3.60;;;14.70;99.90;;;;;;4982926;28;20273;-83
2023/09/21 01:36:15;;;;;;;8.15;4.15;;;14.70;99.90;;;;;;4985246;28;20650;-83
2023/09/21 01:38:46;;;;;;;7.60;3.80;;;14.70;99.90;;;;;;4978382;28;20194;-83
2023/09/21 01:41:17;;;;;;;8.48;4.25;;;14.70;99.90;;;;;;4982656;28;20211;-84
2023/09/21 01:43:45;;;;;;;6.93;3.70;;;14.70;99.90;;;;;;4964440;28;20757;-83
2023/09/21 01:46:21;;;;;;;7.85;3.92;;;14.70;99.90;;;;;;4970758;28;20299;-83
2023/09/21 01:48:51;;;;;;;5.95;3.47;;;14.70;99.90;;;;;;4947137;28;20682;-83
2023/09/21 01:51:20;;;;;;;7.65;3.78;;;14.80;99.90;;;;;;4964792;28;20580;-82
2023/09/21 01:53:48;;;;;;;7.95;3.90;;;14.80;99.90;;;;;;4944816;28;20322;-84
2023/09/21 01:56:16;;;;;;;5.63;3.60;;;14.70;99.90;;;;;;4966537;28;20599;-84
2023/09/21 01:58:44;;;;;;;5.35;3.33;;;14.70;99.90;;;;;;4967060;28;20199;-85
2023/09/21 02:01:16;;;;;;;7.32;4.00;;;14.70;99.90;;;;;;4954489;28;20206;-84
2023/09/21 02:03:45;;;;;;;8.18;3.67;;;14.70;99.90;;;;;;4980899;28;20202;-83
2023/09/21 02:06:13;;;;;;;9.90;4.63;;;14.60;99.90;;;;;;4964331;28;20739;-84
2023/09/21 02:08:41;;;;;;;10.20;4.40;;;14.60;99.90;;;;;;4969801;28;20293;-81
2023/09/21 02:11:10;;;;;;;7.32;4.03;;;14.60;99.90;;;;;;4981746;28;20205;-83
2023/09/21 02:13:38;;;;;;;12.00;4.30;;;14.60;99.90;;;;;;4963664;28;20781;-83
2023/09/21 02:16:06;;;;;;;7.72;4.05;;;14.60;99.90;;;;;;4962437;28;20830;-84
2023/09/21 02:18:34;;;;;;;7.50;3.90;;;14.60;99.90;;;;;;4956321;28;20195;-82
2023/09/21 02:21:02;;;;;;;9.25;4.88;;;14.60;99.90;;;;;;4975129;28;20630;-84
2023/09/21 02:23:30;;;;;;;11.45;4.40;;;14.50;99.90;;;;;;4981412;28;20674;-83
2023/09/21 02:25:58;;;;;;;10.02;4.28;;;14.60;99.90;;;;;;4981605;28;20195;-83
2023/09/21 02:28:25;;;;;;;9.50;4.22;;;14.60;99.90;;;;;;4977539;28;20611;-83
2023/09/21 02:30:53;;;;;;;9.02;4.28;;;14.50;99.90;;;;;;4981161;28;20183;-85
2023/09/21 02:33:22;;;;;;;7.68;4.50;;;14.50;99.90;;;;;;4987931;28;20200;-82
2023/09/21 02:35:50;;;;;;;7.25;3.63;;;14.50;99.90;;;;;;4963008;28;20673;-83
2023/09/21 02:38:22;;;;;;;7.70;4.35;;;14.50;99.90;;;;;;4962177;28;20195;-84
2023/09/21 02:40:50;;;;;;;9.38;4.85;;;14.60;99.90;;;;;;4983475;28;20206;-85
2023/09/21 02:43:18;;;;;;;8.80;4.55;;;14.50;99.90;;;;;;4979278;28;20253;-84
2023/09/21 02:45:49;;;;;;;8.63;4.50;;;14.60;99.90;;;;;;4960645;28;20228;-84
2023/09/21 02:48:16;;;;;;;8.55;4.55;;;14.50;99.90;;;;;;4971812;28;20223;-83
2023/09/21 02:50:48;;;;;;;7.50;4.13;;;14.60;99.90;;;;;;4970262;28;20216;-83
2023/09/21 02:53:17;;;;;;;10.45;5.60;;;14.60;99.90;;;;;;4939855;28;20267;-82
2023/09/21 02:55:51;;;;;;;7.68;3.60;;;14.50;99.90;;;;;;4971853;28;20193;-84
2023/09/21 02:58:22;;;;;;;10.90;4.47;;;14.50;99.90;;;;;;4966130;28;20196;-84
2023/09/21 03:00:52;;;;;;;8.27;4.80;;;14.60;99.90;;;;;;4955187;28;20198;-83
2023/09/21 03:03:21;;;;;;;7.90;4.85;;;14.60;99.90;;;;;;4966073;28;20297;-83
2023/09/21 03:05:51;;;;;;;10.27;4.78;;;14.60;99.90;;;;;;4979398;28;20310;-85
2023/09/21 03:08:22;;;;;;;6.53;3.70;;;14.60;99.90;;;;;;4979530;28;20198;-84
2023/09/21 03:10:56;;;;;;;7.13;4.15;;;14.50;99.90;;;;;;4961626;28;20611;-83
2023/09/21 03:13:26;;;;;;;7.25;3.97;;;14.50;99.90;;;;;;4955072;28;20215;-85
2023/09/21 03:15:58;;;;;;;8.10;4.38;;;14.50;99.90;;;;;;4968216;28;20188;-84
2023/09/21 03:18:30;;;;;;;8.93;4.15;;;14.50;99.90;;;;;;4959947;28;20187;-83
2023/09/21 03:20:57;;;;;;;6.57;3.72;;;14.50;99.90;;;;;;4960427;28;20705;-84
2023/09/21 03:23:28;;;;;;;7.25;3.95;;;14.60;99.90;;;;;;4964112;28;20230;-83
2023/09/21 03:25:57;;;;;;;8.05;3.88;;;14.60;99.90;;;;;;4962806;28;20249;-84
2023/09/21 03:28:26;;;;;;;7.80;3.85;;;14.60;99.90;;;;;;4977852;28;20861;-84
2023/09/21 03:30:56;;;;;;;8.68;4.53;;;14.60;99.90;;;;;;4960575;28;20746;-84
2023/09/21 03:33:25;;;;;;;7.60;4.25;;;14.50;99.90;;;;;;4963892;28;20222;-84
2023/09/21 03:35:53;;;;;;;6.60;3.60;;;14.60;99.90;;;;;;4963544;28;20180;-84
2023/09/21 03:38:22;;;;;;;5.25;3.20;;;14.60;99.90;;;;;;4963349;28;20279;-82
2023/09/21 03:40:53;;;;;;;7.03;3.20;;;14.60;99.90;;;;;;4962343;28;20207;-84
2023/09/21 03:43:23;;;;;;;6.25;3.22;;;14.70;99.90;;;;;;4962564;28;20192;-85
2023/09/21 03:45:51;;;;;;;8.82;3.75;;;14.70;99.90;;;;;;4963431;28;20605;-82
2023/09/21 03:48:19;;;;;;;7.43;4.00;;;14.70;99.90;;;;;;4963977;28;20192;-83
2023/09/21 03:50:49;;;;;;;6.82;3.85;;;14.60;99.90;;;;;;4963380;28;20287;-83
2023/09/21 03:53:17;;;;;;;7.22;3.22;;;14.60;99.90;;;;;;4963184;28;20234;-85
2023/09/21 03:55:46;;;;;;;8.05;4.03;;;14.60;99.90;;;;;;4967362;28;20219;-84
2023/09/21 03:58:14;;;;;;;7.40;4.00;;;14.60;99.90;;;;;;4976409;28;20267;-83
2023/09/21 04:00:42;;;;;;;6.05;3.47;;;14.60;99.90;;;;;;4980546;28;20183;-84
2023/09/21 04:03:10;;;;;;;7.57;3.45;;;14.60;99.90;;;;;;4963148;28;20187;-83
2023/09/21 04:05:54;;;;;;;6.63;3.58;;;14.50;99.90;;;;;;4965957;28;20298;-85
2023/09/21 04:08:22;;;;;;;8.77;4.00;;;14.60;99.90;;;;;;4977486;28;20191;-83
2023/09/21 04:10:50;;;;;;;7.03;3.20;;;14.60;99.90;;;;;;4960247;28;20732;-81
2023/09/21 04:13:18;;;;;;;8.00;4.05;;;14.60;99.90;;;;;;4968416;28;20208;-83
2023/09/21 04:15:46;;;;;;;6.10;3.70;;;14.60;99.90;;;;;;4941331;28;20202;-84
2023/09/21 04:18:14;;;;;;;6.95;3.50;;;14.60;99.90;;;;;;4958443;28;20187;-83
2023/09/21 04:20:44;;;;;;;6.63;2.95;;;14.60;99.90;;;;;;4974368;28;20713;-82
2023/09/21 04:23:12;;;;;;;6.40;2.72;;;14.70;99.90;;;;;;4981545;28;20219;-85
2023/09/21 04:25:45;;;;;;;9.18;3.65;;;14.80;99.90;;;;;;4956706;28;20195;-84
2023/09/21 04:28:14;;;;;;;11.10;3.80;;;14.80;99.90;;;;;;4983115;28;20187;-83
2023/09/21 04:30:41;;;;;;;5.45;2.80;;;14.70;99.90;;;;;;4981787;28;20601;-83
2023/09/21 04:33:09;;;;;;;6.55;3.25;;;14.70;99.90;;;;;;4971435;28;20192;-85
2023/09/21 04:35:37;;;;;;;9.27;3.55;;;14.70;99.90;;;;;;4955138;28;20607;-82
2023/09/21 04:38:05;;;;;;;6.00;3.08;;;14.70;99.90;;;;;;4950660;28;20191;-84
2023/09/21 04:40:32;;;;;;;7.43;3.15;;;14.70;99.90;;;;;;4985059;28;20188;-85
2023/09/21 04:43:00;;;;;;;8.70;3.72;;;14.80;99.90;;;;;;4969004;28;20196;-83
2023/09/21 04:45:28;;;;;;;8.82;3.83;;;14.90;99.90;;;;;;4972721;28;20212;-83
2023/09/21 04:48:01;;;;;;;11.13;4.05;;;14.80;99.90;;;;;;4948306;28;20278;-84
2023/09/21 04:50:33;;;;;;;6.90;3.88;;;14.80;99.90;;;;;;4963583;28;20191;-85
2023/09/21 04:53:01;;;;;;;6.55;3.67;;;14.70;99.90;;;;;;4955684;28;20192;-84
2023/09/21 04:55:31;;;;;;;5.70;3.22;;;14.60;99.90;;;;;;4980152;28;20243;-84
2023/09/21 04:58:00;;;;;;;8.85;4.18;;;14.70;99.90;;;;;;4958282;28;20662;-85
2023/09/21 05:00:29;;;;;;;7.55;4.25;;;14.60;99.90;;;;;;4982603;28;20191;-84
2023/09/21 05:02:57;;;;;;;6.97;3.30;;;14.60;99.90;;;;;;4963246;28;20192;-84
2023/09/21 05:05:26;;;;;;;6.70;3.30;;;14.70;99.90;;;;;;4968988;28;20188;-85
2023/09/21 05:07:55;;;;;;;6.50;3.10;;;14.80;99.90;;;;;;4964758;28;20210;-85
2023/09/21 05:10:23;;;;;;;7.63;4.15;;;14.80;99.90;;;;;;4971560;28;20203;-83
2023/09/21 05:12:52;;;;;;;6.20;3.60;;;14.90;99.90;;;;;;4958057;28;20823;-84
2023/09/21 05:15:20;;;;;;;6.88;3.75;;;14.90;99.90;;;;;;4971187;28;20587;-84
2023/09/21 05:17:48;;;;;;;6.68;3.65;;;14.90;99.90;;;;;;4983889;28;20183;-84
2023/09/21 05:20:16;;;;;;;6.82;3.78;;;14.90;99.90;;;;;;4983511;28;20400;-84
2023/09/21 05:22:43;;;;;;;5.38;3.58;;;14.90;99.90;;;;;;4974838;28;20203;-85
2023/09/21 05:25:11;;;;;;;6.07;3.10;;;14.90;99.90;;;;;;4981025;28;20199;-84
2023/09/21 05:27:42;;;;;;;11.48;3.80;;;14.90;99.90;;;;;;4972314;28;20211;-84
2023/09/21 05:30:10;;;;;;;4.95;3.50;;;15.00;99.90;;;;;;4968048;28;20195;-84
2023/09/21 05:32:38;;;;;;;7.32;3.97;;;14.90;99.90;;;;;;4973431;28;20194;-84
2023/09/21 05:35:07;;;;;;;6.10;3.55;;;15.00;99.90;;;;;;4969758;28;20219;-84
2023/09/21 05:37:36;;;;;;;5.28;3.17;;;15.00;99.90;;;;;;4983202;28;20184;-84
2023/09/21 05:40:05;;;;;;;6.43;3.60;;;15.00;99.90;;;;;;4982659;28;20191;-84
2023/09/21 05:42:35;;;;;;;4.28;2.65;;;15.00;99.90;;;;;;4978807;28;20647;-84
2023/09/21 05:45:03;;;;;;;4.15;3.10;;;15.00;99.90;;;;;;4966042;28;20291;-83
2023/09/21 05:47:32;;;;;;;9.30;3.70;;;15.00;99.90;;;;;;4977951;28;20219;-83
2023/09/21 05:50:00;;;;;;;4.47;3.13;;;15.00;99.90;;;;;;4965898;28;20649;-85
2023/09/21 05:52:30;;;;;;;6.93;3.50;;;15.00;99.90;;;;;;4975658;28;20228;-82
2023/09/21 05:54:58;;;;;;;7.68;3.38;;;15.00;99.90;;;;;;4971669;28;20211;-84
2023/09/21 05:57:25;;;;;;;6.43;2.90;;;15.00;99.90;;;;;;4963589;28;20184;-84
2023/09/21 05:59:54;;;;;;;9.93;3.45;;;15.00;99.90;;;;;;4982378;28;20197;-84
2023/09/21 06:02:22;;;;;;;3.97;3.05;;;15.00;99.90;;;;;;4980697;28;20250;-84
2023/09/21 06:04:50;;;;;;;8.13;3.40;;;14.90;99.90;;;;;;4981556;28;20202;-84
2023/09/21 06:07:17;;;;;;;6.35;3.13;;;15.00;99.90;;;;;;4981829;28;20201;-85
2023/09/21 06:09:45;;;;;;;7.63;3.72;;;15.00;99.90;;;;;;4982046;28;20196;-83
2023/09/21 06:12:13;;;;;;;5.68;3.38;;;15.00;99.90;;;;;;4984418;28;20218;-84
2023/09/21 06:14:41;;;;;;;5.50;3.40;;;15.00;99.90;;;;;;4978022;28;20207;-83
2023/09/21 06:17:10;;;;;;;8.93;3.78;;;15.00;99.90;;;;;;4982389;28;20189;-84
2023/09/21 06:19:39;;;;;;;8.40;3.92;;;15.00;99.90;;;;;;4979691;28;20224;-85
2023/09/21 06:22:07;;;;;;;9.65;3.90;;;15.10;99.90;;;;;;4960079;28;20199;-83
2023/09/21 06:24:35;;;;;;;9.35;3.75;;;15.10;99.90;;;;;;4981625;28;20707;-84
2023/09/21 06:27:02;;;;;;;8.30;3.53;;;15.10;99.90;;;;;;4978534;28;20191;-84
2023/09/21 06:29:30;;;;;;;10.23;3.03;;;15.10;99.90;;;;;;4976419;28;20196;-84
2023/09/21 06:32:00;;;;;;;5.93;3.35;;;15.10;99.90;;;;;;4980989;28;20198;-85
2023/09/21 06:34:42;;;;;;;7.72;3.63;;;15.10;99.90;;;;;;4978655;28;20200;-82
2023/09/21 06:37:12;;;;;;;7.13;3.28;;;15.10;99.90;;;;;;4980033;28;20184;-83
2023/09/21 06:39:40;;;;;;;10.63;3.67;;;15.20;99.90;;;;;;4977935;28;20260;-83
2023/09/21 06:42:08;;;;;;;7.22;3.47;;;15.20;99.90;;;;;;4967861;28;20199;-84
2023/09/21 06:44:36;;;;;;;5.45;3.10;;;15.20;99.90;;;;;;4971185;28;20234;-82
2023/09/21 06:47:04;;;;;;;6.28;3.47;;;15.30;99.90;;;;;;4961511;28;20287;-85
2023/09/21 06:49:35;;;;;;;9.15;3.85;;;15.30;99.90;;;;;;4979992;28;20192;-84
2023/09/21 06:52:04;;;;;;;7.20;3.08;;;15.40;99.90;;;;;;4960367;28;20191;-85
2023/09/21 06:54:32;;;;;;;7.80;3.85;;;15.40;99.90;;;;;;4981775;28;20564;-85
2023/09/21 06:57:03;;;;;;;7.68;4.05;;;15.40;99.90;;;;;;4966224;28;20234;-85
2023/09/21 06:59:38;;;;;;;6.70;2.90;;;15.50;99.90;;;;;;4964986;28;20773;-86
2023/09/21 07:02:06;;;;;;;6.72;3.03;;;15.50;99.90;;;;;;4964702;28;20738;-84
2023/09/21 07:04:34;;;;;;;6.68;2.92;;;15.50;99.90;;;;;;4984280;28;20192;-87
2023/09/21 07:07:06;;;;;;;9.52;3.45;;;15.60;99.90;;;;;;4979840;28;20265;-86
2023/09/21 07:09:37;;;;;;;11.57;3.28;;;15.60;99.90;;;;;;4963327;28;20195;-85
2023/09/21 07:12:05;;;;;;;5.10;2.97;;;15.60;99.90;;;;;;4965606;28;20286;-85
2023/09/21 07:14:36;;;;;;;8.75;3.22;;;15.60;99.90;;;;;;4978431;28;20270;-84
2023/09/21 07:17:05;;;;;;;5.80;3.20;;;15.70;99.90;;;;;;4971084;28;20218;-85
2023/09/21 07:19:37;;;;;;;6.20;3.67;;;15.70;99.90;;;;;;4980458;28;20254;-85
2023/09/21 07:22:04;;;;;;;7.07;3.55;;;15.70;99.90;;;;;;4966447;28;20938;-85
2023/09/21 07:24:32;;;;;;;7.28;3.78;;;15.70;99.90;;;;;;4966796;28;20195;-85
2023/09/21 07:27:00;;;;;;;5.05;3.72;;;15.70;99.90;;;;;;4955363;28;20200;-86
2023/09/21 07:29:31;;;;;;;8.52;3.38;;;15.80;99.90;;;;;;4970262;28;20193;-87
2023/09/21 07:32:00;;;;;;;8.25;3.55;;;15.80;99.90;;;;;;4982494;28;20604;-85
2023/09/21 07:34:29;;;;;;;7.07;3.50;;;15.80;99.90;;;;;;4970828;28;20211;-87
2023/09/21 07:36:57;;;;;;;9.10;3.22;;;15.90;99.90;;;;;;4975721;28;20215;-87
2023/09/21 07:39:25;;;;;;;6.25;2.83;;;15.90;99.90;;;;;;4962818;28;20615;-86
2023/09/21 07:41:53;;;;;;;8.43;3.50;;;16.00;99.90;;;;;;4962877;28;20750;-84
2023/09/21 07:44:22;;;;;;;6.10;3.45;;;16.10;99.90;;;;;;4961477;28;20365;-85
2023/09/21 07:46:53;;;;;;;6.68;3.33;;;16.10;99.90;;;;;;4980489;28;20191;-85
2023/09/21 07:49:21;;;;;;;8.48;3.50;;;16.20;99.90;;;;;;4979443;28;20196;-84
2023/09/21 07:51:49;;;;;;;9.30;3.33;;;16.30;99.90;;;;;;4980105;28;20188;-87
2023/09/21 07:54:17;;;;;;;8.57;2.97;;;16.20;99.90;;;;;;4965527;28;20921;-87
2023/09/21 07:56:46;;;;;;;8.93;3.00;;;16.30;99.90;;;;;;4976286;28;20199;-86
2023/09/21 07:59:15;;;;;;;7.85;3.13;;;16.40;99.90;;;;;;4983066;28;20192;-85
2023/09/21 08:01:44;;;;;;;8.25;2.90;;;16.40;99.90;;;;;;4983163;28;20184;-84
2023/09/21 08:04:12;;;;;;;6.30;3.05;;;16.40;99.90;;;;;;4991312;28;20198;-84
2023/09/21 08:06:40;;;;;;;6.50;2.78;;;16.50;99.90;;;;;;4980337;28;20202;-87
2023/09/21 08:09:08;;;;;;;7.72;2.92;;;16.40;99.90;;;;;;4985292;28;20195;-85
2023/09/21 08:11:52;;;;;;;6.72;2.80;;;16.50;99.90;;;;;;4982484;28;20192;-86
2023/09/21 08:14:20;;;;;;;8.18;2.90;;;16.60;99.90;;;;;;4979646;28;20203;-85
2023/09/21 08:16:48;;;;;;;5.50;2.78;;;16.60;99.90;;;;;;4968252;28;20200;-88
2023/09/21 08:19:16;;;;;;;8.88;2.60;;;16.60;99.90;;;;;;4980110;28;20286;-86
2023/09/21 08:21:44;;;;;;;6.22;3.00;;;16.50;99.90;;;;;;4968075;28;20251;-87
2023/09/21 08:24:12;;;;;;;7.10;2.45;;;16.60;99.90;;;;;;4981550;28;20274;-85
2023/09/21 08:26:40;;;;;;;7.20;2.92;;;16.60;99.90;;;;;;4983707;28;20184;-88
2023/09/21 08:29:09;;;;;;;5.20;3.00;;;16.70;99.90;;;;;;4983511;28;20192;-87
2023/09/21 08:31:37;;;;;;;4.70;2.70;;;16.80;99.90;;;;;;4982961;28;20208;-87
2023/09/21 08:34:04;;;;;;;5.68;2.92;;;16.80;99.90;;;;;;4977645;28;20216;-87
2023/09/21 08:36:32;;;;;;;5.55;2.55;;;16.90;99.90;;;;;;4981914;28;20243;-85
2023/09/21 08:39:00;;;;;;;7.65;2.72;;;17.10;99.90;;;;;;4983472;28;20187;-86
2023/09/21 08:41:29;;;;;;;11.60;3.33;;;17.30;99.90;;;;;;4972408;28;20192;-85
2023/09/21 08:43:57;;;;;;;5.50;2.60;;;17.40;99.90;;;;;;4982511;28;20355;-85
2023/09/21 08:46:27;;;;;;;5.22;2.40;;;17.40;99.90;;;;;;4974699;28;20203;-86
2023/09/21 08:48:58;;;;;;;6.38;2.33;;;17.30;99.90;;;;;;4973658;28;20281;-87
2023/09/21 08:51:27;;;;;;;7.68;2.20;;;17.40;99.90;;;;;;4974449;28;20315;-87
2023/09/21 08:53:55;;;;;;;9.40;2.40;;;17.60;99.90;;;;;;4959509;28;20208;-86
2023/09/21 08:56:25;;;;;;;9.57;2.40;;;17.50;99.90;;;;;;4981373;28;20211;-85
2023/09/21 08:58:55;;;;;;;5.40;2.45;;;17.40;99.90;;;;;;4965592;28;20195;-86
2023/09/21 09:01:23;;;;;;;6.43;2.17;;;17.70;99.90;;;;;;4982879;28;20195;-85
2023/09/21 09:03:51;;;;;;;5.00;1.92;;;17.70;99.90;;;;;;4983511;28;20266;-86
2023/09/21 09:06:20;;;;;;;5.18;2.13;;;17.70;99.90;;;;;;4983643;28;20194;-84
2023/09/21 09:08:48;;;;;;;7.78;2.60;;;17.60;99.90;;;;;;4973338;28;20192;-85
2023/09/21 09:11:34;;;;;;;6.47;2.25;;;17.70;99.90;;;;;;4980662;28;20191;-84
2023/09/21 09:14:03;;;;;;;9.88;2.53;;;17.80;99.90;;;;;;4982461;28;20557;-83
2023/09/21 09:16:33;;;;;;;5.47;1.85;;;17.70;99.90;;;;;;4983000;28;20234;-83
2023/09/21 09:19:05;;;;;;;4.32;1.88;;;17.90;99.90;;;;;;4966088;28;20232;-86
2023/09/21 09:21:33;;;;;;;6.07;1.92;;;18.00;99.90;;;;;;4975105;28;20745;-85
2023/09/21 09:24:00;;;;;;;6.68;2.08;;;18.10;99.90;;;;;;4950735;28;20195;-86
2023/09/21 09:26:28;;;;;;;4.65;2.10;;;18.00;99.90;;;;;;4972399;28;20193;-86
2023/09/21 09:29:12;;;;;;;4.88;2.00;;;18.20;99.90;;;;;;4982450;28;20215;-85
2023/09/21 09:31:41;;;;;;;7.53;1.67;;;18.20;99.90;;;;;;4960552;28;20744;-85
2023/09/21 09:34:16;;;;;;;3.80;1.63;;;18.30;99.90;;;;;;4980311;28;20619;-83
2023/09/21 09:36:52;;;;;;;8.95;1.80;;;18.20;99.90;;;;;;4964351;28;20194;-85
2023/09/21 09:39:20;;;;;;;3.95;2.00;;;18.20;99.90;;;;;;4978911;28;20195;-85
2023/09/21 09:41:50;;;;;;;7.00;1.90;;;18.30;99.90;;;;;;4958979;28;20192;-83
2023/09/21 09:44:24;;;;;;;7.22;1.55;;;18.40;99.90;;;;;;4961821;28;20196;-84
2023/09/21 09:46:58;;;;;;;9.80;1.88;;;18.50;99.90;;;;;;4979773;28;20186;-85
2023/09/21 09:49:32;;;;;;;7.30;1.70;;;18.60;99.90;;;;;;4974070;28;20833;-85
2023/09/21 09:52:02;;;;;;;3.92;1.80;;;18.70;99.90;;;;;;4985822;28;20620;-85
2023/09/21 09:54:30;;;;;;;8.75;2.00;;;18.80;99.90;;;;;;4980737;28;20192;-86
2023/09/21 09:57:02;;;;;;;5.13;1.85;;;18.70;99.90;;;;;;4961584;28;20206;-85
2023/09/21 09:59:35;;;;;;;8.57;2.13;;;18.90;99.90;;;;;;4981339;28;20276;-85
2023/09/21 10:02:07;;;;;;;2.40;1.60;;;18.80;99.90;;;;;;4971572;28;20196;-86
2023/09/21 10:04:40;;;;;;;6.30;1.70;;;18.90;99.90;;;;;;4972938;28;20210;-86
2023/09/21 10:07:08;;;;;;;3.17;1.83;;;18.80;99.90;;;;;;4984550;28;20187;-86
2023/09/21 10:09:37;;;;;;;8.13;1.90;;;18.70;99.90;;;;;;4972882;28;20540;-86
2023/09/21 10:12:07;;;;;;;3.33;1.75;;;18.60;99.90;;;;;;4983416;28;20658;-87
2023/09/21 10:14:41;;;;;;;6.28;1.88;;;18.60;99.90;;;;;;4972429;28;20202;-86
2023/09/21 10:17:10;;;;;;;4.57;1.65;;;18.70;99.90;;;;;;4956801;28;20254;-85
2023/09/21 10:19:43;;;;;;;6.47;1.80;;;18.80;99.90;;;;;;4957754;28;20260;-85
2023/09/21 10:22:26;;;;;;;4.43;1.65;;;19.20;99.90;;;;;;4927698;29;20256;-86
2023/09/21 10:25:00;;;;;;;5.13;1.73;;;19.30;99.90;;;;;;4941833;29;20193;-86
2023/09/21 10:27:28;;;;;;;5.25;1.63;;;19.50;99.90;;;;;;4950564;29;20197;-86
2023/09/21 10:30:08;;;;;;;7.82;1.70;;;19.60;99.90;;;;;;4945591;28;20196;-86
2023/09/21 10:32:48;;;;;;;5.07;1.52;;;19.60;99.90;;;;;;4938018;29;20703;-85
2023/09/21 10:35:42;;;;;;;2.38;1.30;;;19.40;99.90;;;;;;4941175;29;20242;-85
2023/09/21 10:38:14;;;;;;;3.15;1.50;;;19.10;99.90;;;;;;4943354;29;20243;-86
2023/09/21 10:40:42;;;;;;;3.85;1.52;;;19.20;99.90;;;;;;4934643;29;20186;-85
2023/09/21 10:43:36;;;;;;;4.60;1.38;;;19.50;99.90;;;;;;4941802;29;20188;-86
2023/09/21 10:46:17;;;;;;;3.60;1.80;;;19.80;99.90;;;;;;4941491;29;20201;-87
2023/09/21 10:48:58;;;;;;;6.85;1.70;;;19.60;99.90;;;;;;4940154;29;20208;-85
2023/09/21 10:51:26;;;;;;;5.20;1.60;;;19.50;99.90;;;;;;4948372;28;20188;-85
2023/09/21 10:53:58;;;;;;;5.38;1.50;;;19.80;99.90;;;;;;4943883;29;20554;-84
2023/09/21 10:56:27;;;;;;;3.80;1.60;;;20.20;99.90;;;;;;4942610;28;20205;-84
2023/09/21 10:58:54;;;;;;;3.58;1.65;;;20.00;99.90;;;;;;4946180;28;20185;-86
2023/09/21 11:01:23;;;;;;;2.30;1.10;;;20.50;99.90;;;;;;4943039;28;20269;-87
2023/09/21 11:03:52;;;;;;;2.90;1.30;;;20.30;99.90;;;;;;4930809;28;20200;-87
2023/09/21 11:06:21;;;;;;;2.13;1.20;;;20.20;99.90;;;;;;4942728;28;20616;-86
2023/09/21 11:08:49;;;;;;;3.75;1.13;;;20.50;99.90;;;;;;4927998;29;20204;-85
2023/09/21 11:11:17;;;;;;;2.50;1.20;;;20.60;99.90;;;;;;4939122;29;20197;-86
2023/09/21 11:13:50;;;;;;;4.47;1.35;;;20.30;99.90;;;;;;4932165;29;20189;-86
2023/09/21 11:16:19;;;;;;;9.48;1.63;;;19.90;99.90;;;;;;4936040;29;20217;-85
2023/09/21 11:18:48;;;;;;;8.15;1.48;;;19.70;99.90;;;;;;4940782;28;20181;-85
2023/09/21 11:21:16;;;;;;;7.85;1.88;;;19.70;99.90;;;;;;4988802;28;20184;-87
2023/09/21 11:23:45;;;;;;;4.45;1.75;;;20.00;99.90;;;;;;4960543;28;20216;-85
2023/09/21 11:26:14;;;;;;;5.32;1.73;;;20.20;99.90;;;;;;4956412;28;20205;-87
2023/09/21 11:28:45;;;;;;;5.32;1.90;;;20.20;99.90;;;;;;4951089;28;20202;-85
2023/09/21 11:31:13;;;;;;;3.13;1.52;;;20.10;99.90;;;;;;4976990;28;20187;-85
2023/09/21 11:33:41;;;;;;;2.63;1.60;;;20.00;99.90;;;;;;4968143;28;20269;-85
2023/09/21 11:36:09;;;;;;;4.15;1.70;;;19.90;99.90;;;;;;4983007;28;20759;-86
2023/09/21 11:38:37;;;;;;;5.70;1.55;;;19.90;99.90;;;;;;4982529;28;20200;-86
2023/09/21 11:41:04;;;;;;;3.70;1.77;;;20.00;99.90;;;;;;4966168;28;20741;-85
2023/09/21 11:43:32;;;;;;;6.72;1.85;;;20.30;99.90;;;;;;4974478;28;20192;-87
2023/09/21 11:46:06;;;;;;;4.05;1.70;;;20.30;99.90;;;;;;4961518;28;20207;-85
2023/09/21 11:48:34;;;;;;;6.22;1.83;;;20.10;99.90;;;;;;4974790;28;20662;-86
2023/09/21 11:51:07;;;;;;;4.97;1.80;;;20.10;99.90;;;;;;4958956;28;20210;-85
2023/09/21 11:53:35;;;;;;;5.60;2.10;;;20.30;99.90;;;;;;4969918;28;20195;-86
2023/09/21 11:56:02;;;;;;;4.03;1.73;;;20.70;99.90;;;;;;4964330;28;20221;-85
2023/09/21 11:58:31;;;;;;;5.90;1.95;;;20.90;99.90;;;;;;4973741;28;20273;-85
2023/09/21 12:01:19;;;;;;;6.63;1.98;;;21.10;99.90;;;;;;4984220;28;20196;-85
2023/09/21 12:03:51;;;;;;;10.10;1.98;;;21.10;99.90;;;;;;4972496;28;20607;-85
2023/09/21 12:06:20;;;;;;;10.50;2.40;;;21.20;99.90;;;;;;4967546;28;20196;-85
2023/09/21 12:08:49;;;;;;;10.60;2.00;;;21.00;99.90;;;;;;4965491;28;20231;-85
2023/09/21 12:11:17;;;;;;;6.20;2.45;;;21.30;99.90;;;;;;4983889;28;20254;-85
2023/09/21 12:13:44;;;;;;;4.40;1.92;;;21.30;99.90;;;;;;4975510;28;20191;-85
2023/09/21 12:16:12;;;;;;;5.95;2.08;;;21.50;99.90;;;;;;4973081;28;20673;-85
2023/09/21 12:18:41;;;;;;;4.80;1.80;;;21.50;99.90;;;;;;4958622;28;20206;-85
2023/09/21 12:21:09;;;;;;;5.00;2.03;;;21.40;99.90;;;;;;4957486;28;20199;-85
2023/09/21 12:23:37;;;;;;;6.53;2.17;;;21.50;99.90;;;;;;4982429;28;20192;-86
2023/09/21 12:26:05;;;;;;;6.82;1.75;;;21.80;99.90;;;;;;4982380;28;20214;-84
2023/09/21 12:28:35;;;;;;;6.63;1.75;;;21.90;99.90;;;;;;4958638;28;20549;-85
2023/09/21 12:31:03;;;;;;;6.32;1.83;;;21.60;99.90;;;;;;4983790;28;20187;-85
2023/09/21 12:33:31;;;;;;;6.10;1.58;;;21.80;99.90;;;;;;4982241;28;20200;-84
2023/09/21 12:36:13;;;;;;;5.80;1.70;;;21.70;99.90;;;;;;4981714;28;20214;-84
2023/09/21 12:38:56;;;;;;;4.60;1.85;;;21.80;99.90;;;;;;4984106;28;20699;-87
2023/09/21 12:41:25;;;;;;;7.93;1.65;;;21.80;99.90;;;;;;4991794;28;20187;-85
2023/09/21 12:43:53;;;;;;;4.07;1.83;;;21.70;99.90;;;;;;4970066;28;20195;-86
2023/09/21 12:46:22;;;;;;;4.75;1.83;;;21.60;99.90;;;;;;4981739;28;20203;-84
2023/09/21 12:48:50;;;;;;;7.68;2.10;;;21.80;99.90;;;;;;4954521;28;20251;-85
2023/09/21 12:51:19;;;;;;;5.20;1.88;;;22.00;99.90;;;;;;4972242;28;20191;-86
2023/09/21 12:53:46;;;;;;;6.63;2.13;;;21.70;99.90;;;;;;4982758;28;20194;-86
2023/09/21 12:56:14;;;;;;;5.72;1.90;;;21.60;99.90;;;;;;4982276;28;20212;-84
2023/09/21 12:58:42;;;;;;;4.78;2.00;;;21.70;99.90;;;;;;4958828;28;20291;-86